PWSweather.com
Personal Weather Stations
Station Observations
DW6359
Southwest Cambria, Cambria, WI 53923

Southwest CambriaCambria, WI 53923

Lat: 43.541194, Lon: -89.11275

Elevation: 945

Station Type: Davis Vantage Pro2

http://home.centurytel.net/weathercambria/wxcambria.html

High Low Average
Temperature 11.2°F-11.6°C -11.3°F-24.1°C 1.2°F-17.1°C
Dew Point 1.4°F-17.0°C -15.2°F-26.2°C -5.4°F-20.8°C
Winds 10.0 mph 16.1 kmh Calm Calm 2.0 mph WSW3.2 kmh WSW
Wind Gusts 14.0 mph22.5 kmh -- 1.0 mph1.6 kmh
Humidity 83% 61% 74%
Pressure 30.79 in1042.7 mb 30.43 in1030.5 mb -
Precipitation 0.00 in0.0 mm - -
Hour Temp Dew Point Humidity Winds Wind Gusts Pressure Precip Precip Rate Daily Precip Total
12:00 AM -0.5°F-18.1°C -6.8°F-21.6°C 74% Calm Calm -- 30.69 in1039.3 mb 0.00 in0.0 mm 0.00 in0.0 mm 0.00 in0.0 mm
12:05 AM -0.4°F-18.0°C -6.7°F-21.5°C 74% Calm Calm -- 30.69 in1039.3 mb 0.00 in0.0 mm 0.00 in0.0 mm 0.00 in0.0 mm
12:10 AM -0.4°F-18.0°C -6.7°F-21.5°C 74% 4.0 mph NW6.4 kmh NW -- 30.69 in1039.3 mb 0.00 in0.0 mm 0.00 in0.0 mm 0.00 in0.0 mm
12:15 AM -0.3°F-17.9°C -6.6°F-21.4°C 74% 3.0 mph NW4.8 kmh NW -- 30.69 in1039.3 mb 0.00 in0.0 mm 0.00 in0.0 mm 0.00 in0.0 mm
12:20 AM -0.3°F-17.9°C -6.6°F-21.4°C 74% 2.0 mph NW3.2 kmh NW -- 30.69 in1039.3 mb 0.00 in0.0 mm 0.00 in0.0 mm 0.00 in0.0 mm
12:25 AM -0.4°F-18.0°C -6.7°F-21.5°C 74% 2.0 mph NW3.2 kmh NW -- 30.69 in1039.3 mb 0.00 in0.0 mm 0.00 in0.0 mm 0.00 in0.0 mm
12:30 AM -0.5°F-18.1°C -6.8°F-21.6°C 74% 2.0 mph NW3.2 kmh NW 5.0 mph8.0 kmh 30.69 in1039.3 mb 0.00 in0.0 mm 0.00 in0.0 mm 0.00 in0.0 mm
12:35 AM -0.5°F-18.1°C -6.8°F-21.6°C 74% 2.0 mph NW3.2 kmh NW 5.0 mph8.0 kmh 30.69 in1039.3 mb 0.00 in0.0 mm 0.00 in0.0 mm 0.00 in0.0 mm
12:40 AM -0.8°F-18.2°C -7.1°F-21.7°C 74% Calm Calm -- 30.69 in1039.3 mb 0.00 in0.0 mm 0.00 in0.0 mm 0.00 in0.0 mm
12:45 AM -1.1°F-18.4°C -7.3°F-21.8°C 74% 1.0 mph NW1.6 kmh NW -- 30.69 in1039.3 mb 0.00 in0.0 mm 0.00 in0.0 mm 0.00 in0.0 mm
12:50 AM -1.4°F-18.6°C -7.6°F-22.0°C 74% 2.0 mph NW3.2 kmh NW -- 30.69 in1039.3 mb 0.00 in0.0 mm 0.00 in0.0 mm 0.00 in0.0 mm
12:55 AM -1.5°F-18.6°C -7.5°F-21.9°C 75% 2.0 mph NW3.2 kmh NW -- 30.69 in1039.3 mb 0.00 in0.0 mm 0.00 in0.0 mm 0.00 in0.0 mm
01:00 AM -1.7°F-18.7°C -7.7°F-22.1°C 75% 1.0 mph NW1.6 kmh NW -- 30.70 in1039.6 mb 0.00 in0.0 mm 0.00 in0.0 mm 0.00 in0.0 mm
01:05 AM -1.9°F-18.8°C -7.9°F-22.2°C 75% 2.0 mph NW3.2 kmh NW -- 30.70 in1039.6 mb 0.00 in0.0 mm 0.00 in0.0 mm 0.00 in0.0 mm
01:10 AM -2.1°F-18.9°C -8.0°F-22.2°C 75% 1.0 mph NW1.6 kmh NW -- 30.70 in1039.6 mb 0.00 in0.0 mm 0.00 in0.0 mm 0.00 in0.0 mm
01:15 AM -2.2°F-19.0°C -7.9°F-22.2°C 76% 2.0 mph NW3.2 kmh NW -- 30.70 in1039.6 mb 0.00 in0.0 mm 0.00 in0.0 mm 0.00 in0.0 mm
01:20 AM -2.1°F-18.9°C -7.8°F-22.1°C 76% 2.0 mph NW3.2 kmh NW 4.0 mph6.4 kmh 30.71 in1040.0 mb 0.00 in0.0 mm 0.00 in0.0 mm 0.00 in0.0 mm
01:25 AM -2.3°F-19.1°C -8.0°F-22.2°C 76% 2.0 mph NW3.2 kmh NW 4.0 mph6.4 kmh 30.71 in1040.0 mb 0.00 in0.0 mm 0.00 in0.0 mm 0.00 in0.0 mm
01:30 AM -2.7°F-19.3°C -8.4°F-22.4°C 76% 3.0 mph NW4.8 kmh NW -- 30.71 in1040.0 mb 0.00 in0.0 mm 0.00 in0.0 mm 0.00 in0.0 mm
01:35 AM -3.0°F-19.4°C -8.6°F-22.6°C 76% 2.0 mph NW3.2 kmh NW -- 30.71 in1040.0 mb 0.00 in0.0 mm 0.00 in0.0 mm 0.00 in0.0 mm
01:40 AM -3.0°F-19.4°C -8.6°F-22.6°C 76% Calm Calm -- 30.70 in1039.6 mb 0.00 in0.0 mm 0.00 in0.0 mm 0.00 in0.0 mm
01:45 AM -3.0°F-19.4°C -8.4°F-22.4°C 77% 2.0 mph NW3.2 kmh NW -- 30.70 in1039.6 mb 0.00 in0.0 mm 0.00 in0.0 mm 0.00 in0.0 mm
01:50 AM -3.1°F-19.5°C -8.5°F-22.5°C 77% 2.0 mph NW3.2 kmh NW -- 30.70 in1039.6 mb 0.00 in0.0 mm 0.00 in0.0 mm 0.00 in0.0 mm
01:55 AM -3.2°F-19.6°C -8.6°F-22.6°C 77% 2.0 mph NW3.2 kmh NW -- 30.70 in1039.6 mb 0.00 in0.0 mm 0.00 in0.0 mm 0.00 in0.0 mm
02:00 AM -3.3°F-19.6°C -8.7°F-22.6°C 77% 1.0 mph NW1.6 kmh NW -- 30.70 in1039.6 mb 0.00 in0.0 mm 0.00 in0.0 mm 0.00 in0.0 mm
02:05 AM -3.6°F-19.8°C -9.0°F-22.8°C 77% 2.0 mph NW3.2 kmh NW -- 30.70 in1039.6 mb 0.00 in0.0 mm 0.00 in0.0 mm 0.00 in0.0 mm
02:10 AM -3.7°F-19.8°C -9.1°F-22.8°C 77% 4.0 mph NW6.4 kmh NW 3.0 mph4.8 kmh 30.70 in1039.6 mb 0.00 in0.0 mm 0.00 in0.0 mm 0.00 in0.0 mm
02:15 AM -3.8°F-19.9°C -8.9°F-22.7°C 78% 2.0 mph NW3.2 kmh NW 3.0 mph4.8 kmh 30.71 in1040.0 mb 0.00 in0.0 mm 0.00 in0.0 mm 0.00 in0.0 mm
02:20 AM -4.2°F-20.1°C -9.6°F-23.1°C 77% Calm Calm -- 30.70 in1039.6 mb 0.00 in0.0 mm 0.00 in0.0 mm 0.00 in0.0 mm
02:25 AM -4.5°F-20.3°C -9.6°F-23.1°C 78% 1.0 mph NW1.6 kmh NW -- 30.70 in1039.6 mb 0.00 in0.0 mm 0.00 in0.0 mm 0.00 in0.0 mm
02:30 AM -4.3°F-20.2°C -9.4°F-23.0°C 78% 3.0 mph NW4.8 kmh NW -- 30.70 in1039.6 mb 0.00 in0.0 mm 0.00 in0.0 mm 0.00 in0.0 mm
02:35 AM -4.1°F-20.1°C -8.9°F-22.7°C 79% 2.0 mph NW3.2 kmh NW -- 30.71 in1040.0 mb 0.00 in0.0 mm 0.00 in0.0 mm 0.00 in0.0 mm
02:40 AM -4.1°F-20.1°C -8.9°F-22.7°C 79% 2.0 mph NW3.2 kmh NW -- 30.71 in1040.0 mb 0.00 in0.0 mm 0.00 in0.0 mm 0.00 in0.0 mm
02:45 AM -4.4°F-20.2°C -9.5°F-23.1°C 78% 2.0 mph NW3.2 kmh NW -- 30.72 in1040.3 mb 0.00 in0.0 mm 0.00 in0.0 mm 0.00 in0.0 mm
02:50 AM -4.6°F-20.3°C -9.7°F-23.2°C 78% 1.0 mph NW1.6 kmh NW -- 30.72 in1040.3 mb 0.00 in0.0 mm 0.00 in0.0 mm 0.00 in0.0 mm
02:55 AM -4.5°F-20.3°C -9.3°F-22.9°C 79% 1.0 mph NW1.6 kmh NW -- 30.72 in1040.3 mb 0.00 in0.0 mm 0.00 in0.0 mm 0.00 in0.0 mm
03:00 AM -4.4°F-20.2°C -9.2°F-22.9°C 79% 2.0 mph NW3.2 kmh NW 3.0 mph4.8 kmh 30.72 in1040.3 mb 0.00 in0.0 mm 0.00 in0.0 mm 0.00 in0.0 mm
03:05 AM -4.4°F-20.2°C -9.2°F-22.9°C 79% 1.0 mph NW1.6 kmh NW 3.0 mph4.8 kmh 30.73 in1040.6 mb 0.00 in0.0 mm 0.00 in0.0 mm 0.00 in0.0 mm
03:10 AM -4.5°F-20.3°C -9.3°F-22.9°C 79% 2.0 mph NW3.2 kmh NW -- 30.73 in1040.6 mb 0.00 in0.0 mm 0.00 in0.0 mm 0.00 in0.0 mm
03:15 AM -4.6°F-20.3°C -9.4°F-23.0°C 79% 1.0 mph NW1.6 kmh NW -- 30.73 in1040.6 mb 0.00 in0.0 mm 0.00 in0.0 mm 0.00 in0.0 mm
03:20 AM -4.6°F-20.3°C -9.4°F-23.0°C 79% 2.0 mph NW3.2 kmh NW -- 30.73 in1040.6 mb 0.00 in0.0 mm 0.00 in0.0 mm 0.00 in0.0 mm
03:25 AM -4.9°F-20.5°C -9.7°F-23.2°C 79% Calm Calm -- 30.73 in1040.6 mb 0.00 in0.0 mm 0.00 in0.0 mm 0.00 in0.0 mm
03:30 AM -5.1°F-20.6°C -9.9°F-23.3°C 79% 2.0 mph NW3.2 kmh NW -- 30.73 in1040.6 mb 0.00 in0.0 mm 0.00 in0.0 mm 0.00 in0.0 mm
03:35 AM -5.4°F-20.8°C -10.2°F-23.4°C 79% 2.0 mph NW3.2 kmh NW -- 30.73 in1040.6 mb 0.00 in0.0 mm 0.00 in0.0 mm 0.00 in0.0 mm
03:40 AM -5.7°F-20.9°C -10.5°F-23.6°C 79% 1.0 mph NW1.6 kmh NW -- 30.74 in1041.0 mb 0.00 in0.0 mm 0.00 in0.0 mm 0.00 in0.0 mm
03:45 AM -6.2°F-21.2°C -11.0°F-23.9°C 79% 3.0 mph NW4.8 kmh NW -- 30.74 in1041.0 mb 0.00 in0.0 mm 0.00 in0.0 mm 0.00 in0.0 mm
03:50 AM -6.8°F-21.6°C -11.6°F-24.2°C 79% 2.0 mph NW3.2 kmh NW 4.0 mph6.4 kmh 30.74 in1041.0 mb 0.00 in0.0 mm 0.00 in0.0 mm 0.00 in0.0 mm
03:55 AM -7.3°F-21.8°C -12.1°F-24.5°C 79% 3.0 mph NW4.8 kmh NW 4.0 mph6.4 kmh 30.74 in1041.0 mb 0.00 in0.0 mm 0.00 in0.0 mm 0.00 in0.0 mm
04:00 AM -7.6°F-22.0°C -12.4°F-24.7°C 79% 3.0 mph NW4.8 kmh NW -- 30.74 in1041.0 mb 0.00 in0.0 mm 0.00 in0.0 mm 0.00 in0.0 mm
04:05 AM -7.8°F-22.1°C -12.3°F-24.6°C 80% 1.0 mph NW1.6 kmh NW -- 30.74 in1041.0 mb 0.00 in0.0 mm 0.00 in0.0 mm 0.00 in0.0 mm
04:10 AM -7.9°F-22.2°C -12.1°F-24.5°C 81% 1.0 mph NW1.6 kmh NW -- 30.74 in1041.0 mb 0.00 in0.0 mm 0.00 in0.0 mm 0.00 in0.0 mm
04:15 AM -7.9°F-22.2°C -12.1°F-24.5°C 81% 3.0 mph NW4.8 kmh NW -- 30.74 in1041.0 mb 0.00 in0.0 mm 0.00 in0.0 mm 0.00 in0.0 mm
04:20 AM -8.1°F-22.3°C -12.3°F-24.6°C 81% 2.0 mph NW3.2 kmh NW -- 30.74 in1041.0 mb 0.00 in0.0 mm 0.00 in0.0 mm 0.00 in0.0 mm
04:25 AM -8.5°F-22.5°C -12.7°F-24.8°C 81% 3.0 mph NW4.8 kmh NW -- 30.74 in1041.0 mb 0.00 in0.0 mm 0.00 in0.0 mm 0.00 in0.0 mm
04:30 AM -8.6°F-22.6°C -12.8°F-24.9°C 81% 2.0 mph NW3.2 kmh NW -- 30.75 in1041.3 mb 0.00 in0.0 mm 0.00 in0.0 mm 0.00 in0.0 mm
04:35 AM -8.7°F-22.6°C -12.7°F-24.8°C 82% 3.0 mph NW4.8 kmh NW -- 30.75 in1041.3 mb 0.00 in0.0 mm 0.00 in0.0 mm 0.00 in0.0 mm
04:40 AM -8.8°F-22.7°C -12.8°F-24.9°C 82% 3.0 mph NW4.8 kmh NW 4.0 mph6.4 kmh 30.75 in1041.3 mb 0.00 in0.0 mm 0.00 in0.0 mm 0.00 in0.0 mm
04:45 AM -9.0°F-22.8°C -13.0°F-25.0°C 82% 2.0 mph NW3.2 kmh NW 4.0 mph6.4 kmh 30.75 in1041.3 mb 0.00 in0.0 mm 0.00 in0.0 mm 0.00 in0.0 mm
04:50 AM -8.9°F-22.7°C -12.9°F-24.9°C 82% 2.0 mph NW3.2 kmh NW -- 30.75 in1041.3 mb 0.00 in0.0 mm 0.00 in0.0 mm 0.00 in0.0 mm
04:55 AM -9.0°F-22.8°C -13.0°F-25.0°C 82% 1.0 mph NW1.6 kmh NW -- 30.75 in1041.3 mb 0.00 in0.0 mm 0.00 in0.0 mm 0.00 in0.0 mm
05:00 AM -8.9°F-22.7°C -12.9°F-24.9°C 82% Calm Calm -- 30.74 in1041.0 mb 0.00 in0.0 mm 0.00 in0.0 mm 0.00 in0.0 mm
05:05 AM -8.8°F-22.7°C -12.8°F-24.9°C 82% 2.0 mph NW3.2 kmh NW -- 30.74 in1041.0 mb 0.00 in0.0 mm 0.00 in0.0 mm 0.00 in0.0 mm
05:10 AM -8.7°F-22.6°C -12.7°F-24.8°C 82% 3.0 mph NW4.8 kmh NW -- 30.75 in1041.3 mb 0.00 in0.0 mm 0.00 in0.0 mm 0.00 in0.0 mm
05:15 AM -8.7°F-22.6°C -12.7°F-24.8°C 82% 3.0 mph NW4.8 kmh NW -- 30.74 in1041.0 mb 0.00 in0.0 mm 0.00 in0.0 mm 0.00 in0.0 mm
05:20 AM -8.9°F-22.7°C -12.9°F-24.9°C 82% 3.0 mph NW4.8 kmh NW -- 30.75 in1041.3 mb 0.00 in0.0 mm 0.00 in0.0 mm 0.00 in0.0 mm
05:25 AM -9.3°F-22.9°C -13.3°F-25.2°C 82% 3.0 mph NW4.8 kmh NW -- 30.75 in1041.3 mb 0.00 in0.0 mm 0.00 in0.0 mm 0.00 in0.0 mm
05:30 AM -9.6°F-23.1°C -13.6°F-25.3°C 82% 3.0 mph NW4.8 kmh NW 4.0 mph6.4 kmh 30.75 in1041.3 mb 0.00 in0.0 mm 0.00 in0.0 mm 0.00 in0.0 mm
05:35 AM -9.8°F-23.2°C -13.8°F-25.4°C 82% 2.0 mph NW3.2 kmh NW 4.0 mph6.4 kmh 30.75 in1041.3 mb 0.00 in0.0 mm 0.00 in0.0 mm 0.00 in0.0 mm
05:40 AM -9.9°F-23.3°C -13.9°F-25.5°C 82% 1.0 mph NW1.6 kmh NW -- 30.75 in1041.3 mb 0.00 in0.0 mm 0.00 in0.0 mm 0.00 in0.0 mm
05:45 AM -9.9°F-23.3°C -13.9°F-25.5°C 82% 3.0 mph NW4.8 kmh NW -- 30.75 in1041.3 mb 0.00 in0.0 mm 0.00 in0.0 mm 0.00 in0.0 mm
05:50 AM -9.9°F-23.3°C -13.9°F-25.5°C 82% 4.0 mph NW6.4 kmh NW -- 30.75 in1041.3 mb 0.00 in0.0 mm 0.00 in0.0 mm 0.00 in0.0 mm
05:55 AM -9.9°F-23.3°C -13.9°F-25.5°C 82% 1.0 mph NW1.6 kmh NW -- 30.75 in1041.3 mb 0.00 in0.0 mm 0.00 in0.0 mm 0.00 in0.0 mm
06:00 AM -10.0°F-23.3°C -14.0°F-25.6°C 82% 2.0 mph NW3.2 kmh NW -- 30.75 in1041.3 mb 0.00 in0.0 mm 0.00 in0.0 mm 0.00 in0.0 mm
06:05 AM -10.0°F-23.3°C -14.0°F-25.6°C 82% 3.0 mph NW4.8 kmh NW -- 30.75 in1041.3 mb 0.00 in0.0 mm 0.00 in0.0 mm 0.00 in0.0 mm
06:10 AM -10.2°F-23.4°C -14.2°F-25.7°C 82% 2.0 mph NW3.2 kmh NW -- 30.75 in1041.3 mb 0.00 in0.0 mm 0.00 in0.0 mm 0.00 in0.0 mm
06:15 AM -10.3°F-23.5°C -14.3°F-25.7°C 82% 2.0 mph NW3.2 kmh NW -- 30.75 in1041.3 mb 0.00 in0.0 mm 0.00 in0.0 mm 0.00 in0.0 mm
06:20 AM -10.4°F-23.6°C -14.3°F-25.7°C 82% 2.0 mph NW3.2 kmh NW 3.0 mph4.8 kmh 30.75 in1041.3 mb 0.00 in0.0 mm 0.00 in0.0 mm 0.00 in0.0 mm
06:25 AM -10.4°F-23.6°C -14.3°F-25.7°C 82% 3.0 mph NW4.8 kmh NW 3.0 mph4.8 kmh 30.75 in1041.3 mb 0.00 in0.0 mm 0.00 in0.0 mm 0.00 in0.0 mm
06:30 AM -10.5°F-23.6°C -14.4°F-25.8°C 82% 2.0 mph NW3.2 kmh NW -- 30.75 in1041.3 mb 0.00 in0.0 mm 0.00 in0.0 mm 0.00 in0.0 mm
06:35 AM -10.6°F-23.7°C -14.5°F-25.8°C 82% 3.0 mph NW4.8 kmh NW -- 30.75 in1041.3 mb 0.00 in0.0 mm 0.00 in0.0 mm 0.00 in0.0 mm
06:40 AM -10.7°F-23.7°C -14.6°F-25.9°C 82% 2.0 mph NW3.2 kmh NW -- 30.75 in1041.3 mb 0.00 in0.0 mm 0.00 in0.0 mm 0.00 in0.0 mm
06:45 AM -10.7°F-23.7°C -14.6°F-25.9°C 82% 2.0 mph NW3.2 kmh NW -- 30.75 in1041.3 mb 0.00 in0.0 mm 0.00 in0.0 mm 0.00 in0.0 mm
06:50 AM -10.7°F-23.7°C -14.6°F-25.9°C 82% 3.0 mph NW4.8 kmh NW -- 30.76 in1041.7 mb 0.00 in0.0 mm 0.00 in0.0 mm 0.00 in0.0 mm
06:55 AM -10.8°F-23.8°C -14.7°F-25.9°C 82% 2.0 mph NW3.2 kmh NW -- 30.76 in1041.7 mb 0.00 in0.0 mm 0.00 in0.0 mm 0.00 in0.0 mm
07:00 AM -10.8°F-23.8°C -14.7°F-25.9°C 82% 2.0 mph NW3.2 kmh NW -- 30.76 in1041.7 mb 0.00 in0.0 mm 0.00 in0.0 mm 0.00 in0.0 mm
07:05 AM -10.8°F-23.8°C -14.7°F-25.9°C 82% 3.0 mph NW4.8 kmh NW -- 30.76 in1041.7 mb 0.00 in0.0 mm 0.00 in0.0 mm 0.00 in0.0 mm
07:10 AM -10.8°F-23.8°C -14.7°F-25.9°C 82% 1.0 mph NW1.6 kmh NW 4.0 mph6.4 kmh 30.75 in1041.3 mb 0.00 in0.0 mm 0.00 in0.0 mm 0.00 in0.0 mm
07:15 AM -10.8°F-23.8°C -14.7°F-25.9°C 82% 2.0 mph NW3.2 kmh NW 4.0 mph6.4 kmh 30.76 in1041.7 mb 0.00 in0.0 mm 0.00 in0.0 mm 0.00 in0.0 mm
07:20 AM -10.8°F-23.8°C -14.7°F-25.9°C 82% 2.0 mph NW3.2 kmh NW -- 30.76 in1041.7 mb 0.00 in0.0 mm 0.00 in0.0 mm 0.00 in0.0 mm
07:25 AM -10.8°F-23.8°C -14.7°F-25.9°C 82% 2.0 mph NW3.2 kmh NW -- 30.75 in1041.3 mb 0.00 in0.0 mm 0.00 in0.0 mm 0.00 in0.0 mm
07:30 AM -10.8°F-23.8°C -14.7°F-25.9°C 82% 2.0 mph NW3.2 kmh NW -- 30.76 in1041.7 mb 0.00 in0.0 mm 0.00 in0.0 mm 0.00 in0.0 mm
07:35 AM -10.8°F-23.8°C -14.7°F-25.9°C 82% 1.0 mph NW1.6 kmh NW -- 30.75 in1041.3 mb 0.00 in0.0 mm 0.00 in0.0 mm 0.00 in0.0 mm
07:40 AM -10.8°F-23.8°C -14.7°F-25.9°C 82% 2.0 mph NW3.2 kmh NW -- 30.75 in1041.3 mb 0.00 in0.0 mm 0.00 in0.0 mm 0.00 in0.0 mm
07:45 AM -10.8°F-23.8°C -14.7°F-25.9°C 82% 2.0 mph NW3.2 kmh NW -- 30.76 in1041.7 mb 0.00 in0.0 mm 0.00 in0.0 mm 0.00 in0.0 mm
07:50 AM -10.9°F-23.8°C -14.8°F-26.0°C 82% 3.0 mph NW4.8 kmh NW -- 30.76 in1041.7 mb 0.00 in0.0 mm 0.00 in0.0 mm 0.00 in0.0 mm
07:55 AM -11.1°F-23.9°C -15.0°F-26.1°C 82% 1.0 mph NW1.6 kmh NW -- 30.76 in1041.7 mb 0.00 in0.0 mm 0.00 in0.0 mm 0.00 in0.0 mm
08:00 AM -11.2°F-24.0°C -15.1°F-26.2°C 82% 1.0 mph NW1.6 kmh NW 3.0 mph4.8 kmh 30.75 in1041.3 mb 0.00 in0.0 mm 0.00 in0.0 mm 0.00 in0.0 mm
08:05 AM -11.3°F-24.1°C -15.2°F-26.2°C 82% 2.0 mph NW3.2 kmh NW 3.0 mph4.8 kmh 30.76 in1041.7 mb 0.00 in0.0 mm 0.00 in0.0 mm 0.00 in0.0 mm
08:10 AM -11.3°F-24.1°C -15.2°F-26.2°C 82% 2.0 mph NW3.2 kmh NW -- 30.75 in1041.3 mb 0.00 in0.0 mm 0.00 in0.0 mm 0.00 in0.0 mm
08:15 AM -11.2°F-24.0°C -15.1°F-26.2°C 82% 3.0 mph NW4.8 kmh NW -- 30.75 in1041.3 mb 0.00 in0.0 mm 0.00 in0.0 mm 0.00 in0.0 mm
08:20 AM -11.1°F-23.9°C -15.0°F-26.1°C 82% 3.0 mph NW4.8 kmh NW -- 30.76 in1041.7 mb 0.00 in0.0 mm 0.00 in0.0 mm 0.00 in0.0 mm
08:25 AM -11.1°F-23.9°C -15.0°F-26.1°C 82% 2.0 mph NW3.2 kmh NW -- 30.76 in1041.7 mb 0.00 in0.0 mm 0.00 in0.0 mm 0.00 in0.0 mm
08:30 AM -11.1°F-23.9°C -15.0°F-26.1°C 82% 1.0 mph NW1.6 kmh NW -- 30.76 in1041.7 mb 0.00 in0.0 mm 0.00 in0.0 mm 0.00 in0.0 mm
08:35 AM -11.1°F-23.9°C -15.0°F-26.1°C 82% 3.0 mph NW4.8 kmh NW -- 30.76 in1041.7 mb 0.00 in0.0 mm 0.00 in0.0 mm 0.00 in0.0 mm
08:40 AM -11.1°F-23.9°C -15.0°F-26.1°C 82% 1.0 mph NW1.6 kmh NW -- 30.76 in1041.7 mb 0.00 in0.0 mm 0.00 in0.0 mm 0.00 in0.0 mm
08:45 AM -11.0°F-23.9°C -14.9°F-26.1°C 82% 1.0 mph NW1.6 kmh NW -- 30.77 in1042.0 mb 0.00 in0.0 mm 0.00 in0.0 mm 0.00 in0.0 mm
08:50 AM -10.9°F-23.8°C -14.8°F-26.0°C 82% 2.0 mph NW3.2 kmh NW 3.0 mph4.8 kmh 30.77 in1042.0 mb 0.00 in0.0 mm 0.00 in0.0 mm 0.00 in0.0 mm
08:55 AM -10.8°F-23.8°C -14.7°F-25.9°C 82% 2.0 mph NW3.2 kmh NW 3.0 mph4.8 kmh 30.77 in1042.0 mb 0.00 in0.0 mm 0.00 in0.0 mm 0.00 in0.0 mm
09:00 AM -10.6°F-23.7°C -14.5°F-25.8°C 82% 1.0 mph NW1.6 kmh NW -- 30.77 in1042.0 mb 0.00 in0.0 mm 0.00 in0.0 mm 0.00 in0.0 mm
09:05 AM -10.3°F-23.5°C -14.3°F-25.7°C 82% 3.0 mph NW4.8 kmh NW -- 30.77 in1042.0 mb 0.00 in0.0 mm 0.00 in0.0 mm 0.00 in0.0 mm
09:10 AM -10.1°F-23.4°C -14.1°F-25.6°C 82% 1.0 mph NW1.6 kmh NW -- 30.76 in1041.7 mb 0.00 in0.0 mm 0.00 in0.0 mm 0.00 in0.0 mm
09:15 AM -10.0°F-23.3°C -14.0°F-25.6°C 82% 3.0 mph NW4.8 kmh NW -- 30.76 in1041.7 mb 0.00 in0.0 mm 0.00 in0.0 mm 0.00 in0.0 mm
09:20 AM -9.8°F-23.2°C -13.8°F-25.4°C 82% 1.0 mph NW1.6 kmh NW -- 30.77 in1042.0 mb 0.00 in0.0 mm 0.00 in0.0 mm 0.00 in0.0 mm
09:25 AM -9.6°F-23.1°C -13.6°F-25.3°C 82% 1.0 mph NW1.6 kmh NW -- 30.77 in1042.0 mb 0.00 in0.0 mm 0.00 in0.0 mm 0.00 in0.0 mm
09:30 AM -9.3°F-22.9°C -13.3°F-25.2°C 82% 1.0 mph NW1.6 kmh NW -- 30.77 in1042.0 mb 0.00 in0.0 mm 0.00 in0.0 mm 0.00 in0.0 mm
09:35 AM -9.0°F-22.8°C -13.0°F-25.0°C 82% 4.0 mph NW6.4 kmh NW -- 30.77 in1042.0 mb 0.00 in0.0 mm 0.00 in0.0 mm 0.00 in0.0 mm
09:40 AM -8.7°F-22.6°C -12.7°F-24.8°C 82% 1.0 mph NW1.6 kmh NW 4.0 mph6.4 kmh 30.77 in1042.0 mb 0.00 in0.0 mm 0.00 in0.0 mm 0.00 in0.0 mm
09:45 AM -8.2°F-22.3°C -12.0°F-24.4°C 83% 2.0 mph NW3.2 kmh NW 4.0 mph6.4 kmh 30.77 in1042.0 mb 0.00 in0.0 mm 0.00 in0.0 mm 0.00 in0.0 mm
09:50 AM -7.7°F-22.1°C -11.5°F-24.2°C 83% 2.0 mph NW3.2 kmh NW -- 30.77 in1042.0 mb 0.00 in0.0 mm 0.00 in0.0 mm 0.00 in0.0 mm
09:55 AM -7.2°F-21.8°C -11.0°F-23.9°C 83% 2.0 mph NW3.2 kmh NW -- 30.78 in1042.3 mb 0.00 in0.0 mm 0.00 in0.0 mm 0.00 in0.0 mm
10:00 AM -6.8°F-21.6°C -10.6°F-23.7°C 83% 1.0 mph NW1.6 kmh NW -- 30.78 in1042.3 mb 0.00 in0.0 mm 0.00 in0.0 mm 0.00 in0.0 mm
10:05 AM -6.2°F-21.2°C -10.0°F-23.3°C 83% Calm Calm -- 30.78 in1042.3 mb 0.00 in0.0 mm 0.00 in0.0 mm 0.00 in0.0 mm
10:10 AM -5.8°F-21.0°C -9.6°F-23.1°C 83% 1.0 mph NW1.6 kmh NW -- 30.78 in1042.3 mb 0.00 in0.0 mm 0.00 in0.0 mm 0.00 in0.0 mm
10:15 AM -5.4°F-20.8°C -9.2°F-22.9°C 83% Calm Calm -- 30.78 in1042.3 mb 0.00 in0.0 mm 0.00 in0.0 mm 0.00 in0.0 mm
10:20 AM -5.1°F-20.6°C -8.9°F-22.7°C 83% Calm Calm -- 30.79 in1042.7 mb 0.00 in0.0 mm 0.00 in0.0 mm 0.00 in0.0 mm
10:25 AM -4.8°F-20.4°C -8.6°F-22.6°C 83% Calm Calm -- 30.78 in1042.3 mb 0.00 in0.0 mm 0.00 in0.0 mm 0.00 in0.0 mm
10:30 AM -4.6°F-20.3°C -8.4°F-22.4°C 83% Calm Calm 4.0 mph6.4 kmh 30.78 in1042.3 mb 0.00 in0.0 mm 0.00 in0.0 mm 0.00 in0.0 mm
10:35 AM -4.1°F-20.1°C -7.9°F-22.2°C 83% 2.0 mph NW3.2 kmh NW 4.0 mph6.4 kmh 30.78 in1042.3 mb 0.00 in0.0 mm 0.00 in0.0 mm 0.00 in0.0 mm
10:40 AM -3.6°F-19.8°C -7.4°F-21.9°C 83% 1.0 mph NW1.6 kmh NW -- 30.79 in1042.7 mb 0.00 in0.0 mm 0.00 in0.0 mm 0.00 in0.0 mm
10:45 AM -3.2°F-19.6°C -7.0°F-21.7°C 83% Calm Calm -- 30.79 in1042.7 mb 0.00 in0.0 mm 0.00 in0.0 mm 0.00 in0.0 mm
10:50 AM -2.8°F-19.3°C -6.7°F-21.5°C 83% 1.0 mph NW1.6 kmh NW -- 30.79 in1042.7 mb 0.00 in0.0 mm 0.00 in0.0 mm 0.00 in0.0 mm
10:55 AM -2.3°F-19.1°C -6.2°F-21.2°C 83% 1.0 mph NW1.6 kmh NW -- 30.79 in1042.7 mb 0.00 in0.0 mm 0.00 in0.0 mm 0.00 in0.0 mm
11:00 AM -1.8°F-18.8°C -5.7°F-20.9°C 83% 3.0 mph NW4.8 kmh NW -- 30.79 in1042.7 mb 0.00 in0.0 mm 0.00 in0.0 mm 0.00 in0.0 mm
11:05 AM -1.4°F-18.6°C -5.5°F-20.8°C 82% 1.0 mph NW1.6 kmh NW -- 30.79 in1042.7 mb 0.00 in0.0 mm 0.00 in0.0 mm 0.00 in0.0 mm
11:10 AM -1.0°F-18.3°C -5.1°F-20.6°C 82% 2.0 mph NW3.2 kmh NW -- 30.79 in1042.7 mb 0.00 in0.0 mm 0.00 in0.0 mm 0.00 in0.0 mm
11:15 AM -0.8°F-18.2°C -4.9°F-20.5°C 82% Calm Calm -- 30.79 in1042.7 mb 0.00 in0.0 mm 0.00 in0.0 mm 0.00 in0.0 mm
11:20 AM -0.4°F-18.0°C -4.6°F-20.3°C 82% Calm Calm 3.0 mph4.8 kmh 30.79 in1042.7 mb 0.00 in0.0 mm 0.00 in0.0 mm 0.00 in0.0 mm
11:25 AM -0.1°F-17.8°C -4.3°F-20.2°C 82% 3.0 mph NW4.8 kmh NW 3.0 mph4.8 kmh 30.79 in1042.7 mb 0.00 in0.0 mm 0.00 in0.0 mm 0.00 in0.0 mm
11:30 AM 0.0°F-17.8°C -4.4°F-20.2°C 81% 1.0 mph NW1.6 kmh NW -- 30.79 in1042.7 mb 0.00 in0.0 mm 0.00 in0.0 mm 0.00 in0.0 mm
11:35 AM 0.5°F-17.5°C -3.7°F-19.8°C 82% Calm Calm -- 30.79 in1042.7 mb 0.00 in0.0 mm 0.00 in0.0 mm 0.00 in0.0 mm
11:40 AM 0.9°F-17.3°C -3.5°F-19.7°C 81% Calm Calm -- 30.78 in1042.3 mb 0.00 in0.0 mm 0.00 in0.0 mm 0.00 in0.0 mm
11:45 AM 1.3°F-17.1°C -3.1°F-19.5°C 81% 1.0 mph NW1.6 kmh NW -- 30.78 in1042.3 mb 0.00 in0.0 mm 0.00 in0.0 mm 0.00 in0.0 mm
11:50 AM 1.8°F-16.8°C -2.7°F-19.3°C 81% Calm Calm -- 30.78 in1042.3 mb 0.00 in0.0 mm 0.00 in0.0 mm 0.00 in0.0 mm
11:55 AM 2.1°F-16.6°C -2.6°F-19.2°C 80% Calm Calm -- 30.78 in1042.3 mb 0.00 in0.0 mm 0.00 in0.0 mm 0.00 in0.0 mm
12:00 PM 2.6°F-16.3°C -1.9°F-18.8°C 81% Calm Calm -- 30.78 in1042.3 mb 0.00 in0.0 mm 0.00 in0.0 mm 0.00 in0.0 mm
12:05 PM 3.0°F-16.1°C -1.7°F-18.7°C 80% Calm Calm -- 30.77 in1042.0 mb 0.00 in0.0 mm 0.00 in0.0 mm 0.00 in0.0 mm
12:10 PM 3.6°F-15.8°C -1.4°F-18.6°C 79% Calm Calm 2.0 mph3.2 kmh 30.77 in1042.0 mb 0.00 in0.0 mm 0.00 in0.0 mm 0.00 in0.0 mm
12:15 PM 4.0°F-15.6°C -1.0°F-18.3°C 79% Calm Calm 2.0 mph3.2 kmh 30.77 in1042.0 mb 0.00 in0.0 mm 0.00 in0.0 mm 0.00 in0.0 mm
12:20 PM 4.4°F-15.3°C -0.9°F-18.3°C 78% Calm Calm -- 30.76 in1041.7 mb 0.00 in0.0 mm 0.00 in0.0 mm 0.00 in0.0 mm
12:25 PM 4.5°F-15.3°C -1.1°F-18.4°C 77% Calm Calm -- 30.76 in1041.7 mb 0.00 in0.0 mm 0.00 in0.0 mm 0.00 in0.0 mm
12:30 PM 4.9°F-15.1°C -0.7°F-18.2°C 77% Calm Calm -- 30.76 in1041.7 mb 0.00 in0.0 mm 0.00 in0.0 mm 0.00 in0.0 mm
12:35 PM 5.2°F-14.9°C -0.7°F-18.2°C 76% Calm Calm -- 30.75 in1041.3 mb 0.00 in0.0 mm 0.00 in0.0 mm 0.00 in0.0 mm
12:40 PM 5.7°F-14.6°C -0.2°F-17.9°C 76% Calm Calm -- 30.75 in1041.3 mb 0.00 in0.0 mm 0.00 in0.0 mm 0.00 in0.0 mm
12:45 PM 6.4°F-14.2°C 0.2°F-17.7°C 75% Calm Calm -- 30.75 in1041.3 mb 0.00 in0.0 mm 0.00 in0.0 mm 0.00 in0.0 mm
12:50 PM 6.7°F-14.1°C 0.2°F-17.7°C 74% Calm Calm -- 30.75 in1041.3 mb 0.00 in0.0 mm 0.00 in0.0 mm 0.00 in0.0 mm
12:55 PM 7.4°F-13.7°C 0.9°F-17.3°C 74% Calm Calm -- 30.75 in1041.3 mb 0.00 in0.0 mm 0.00 in0.0 mm 0.00 in0.0 mm
01:00 PM 7.8°F-13.4°C 1.0°F-17.2°C 73% Calm Calm -- 30.74 in1041.0 mb 0.00 in0.0 mm 0.00 in0.0 mm 0.00 in0.0 mm
01:05 PM 7.9°F-13.4°C 0.8°F-17.3°C 72% Calm Calm -- 30.74 in1041.0 mb 0.00 in0.0 mm 0.00 in0.0 mm 0.00 in0.0 mm
01:10 PM 7.9°F-13.4°C 0.5°F-17.5°C 71% Calm Calm -- 30.74 in1041.0 mb 0.00 in0.0 mm 0.00 in0.0 mm 0.00 in0.0 mm
01:15 PM 8.0°F-13.3°C 0.6°F-17.4°C 71% Calm Calm -- 30.74 in1041.0 mb 0.00 in0.0 mm 0.00 in0.0 mm 0.00 in0.0 mm
01:20 PM 8.2°F-13.2°C 0.5°F-17.5°C 70% Calm Calm -- 30.74 in1041.0 mb 0.00 in0.0 mm 0.00 in0.0 mm 0.00 in0.0 mm
01:25 PM 8.3°F-13.2°C 0.3°F-17.6°C 69% Calm Calm -- 30.74 in1041.0 mb 0.00 in0.0 mm 0.00 in0.0 mm 0.00 in0.0 mm
01:30 PM 8.4°F-13.1°C 0.7°F-17.4°C 70% 2.0 mph SW3.2 kmh SW -- 30.73 in1040.6 mb 0.00 in0.0 mm 0.00 in0.0 mm 0.00 in0.0 mm
01:35 PM 8.3°F-13.2°C 0.3°F-17.6°C 69% Calm Calm -- 30.73 in1040.6 mb 0.00 in0.0 mm 0.00 in0.0 mm 0.00 in0.0 mm
01:40 PM 8.3°F-13.2°C 0.3°F-17.6°C 69% Calm Calm -- 30.73 in1040.6 mb 0.00 in0.0 mm 0.00 in0.0 mm 0.00 in0.0 mm
01:45 PM 8.5°F-13.1°C 0.5°F-17.5°C 69% Calm Calm -- 30.72 in1040.3 mb 0.00 in0.0 mm 0.00 in0.0 mm 0.00 in0.0 mm
01:50 PM 8.5°F-13.1°C 0.1°F-17.7°C 68% Calm Calm -- 30.72 in1040.3 mb 0.00 in0.0 mm 0.00 in0.0 mm 0.00 in0.0 mm
01:55 PM 8.7°F-12.9°C 0.0°F-17.8°C 67% Calm Calm -- 30.72 in1040.3 mb 0.00 in0.0 mm 0.00 in0.0 mm 0.00 in0.0 mm
02:00 PM 9.0°F-12.8°C 0.3°F-17.6°C 67% Calm Calm -- 30.72 in1040.3 mb 0.00 in0.0 mm 0.00 in0.0 mm 0.00 in0.0 mm
02:05 PM 9.2°F-12.7°C 0.2°F-17.7°C 66% 1.0 mph SSW1.6 kmh SSW -- 30.71 in1040.0 mb 0.00 in0.0 mm 0.00 in0.0 mm 0.00 in0.0 mm
02:10 PM 9.2°F-12.7°C -0.1°F-17.8°C 65% Calm Calm -- 30.71 in1040.0 mb 0.00 in0.0 mm 0.00 in0.0 mm 0.00 in0.0 mm
02:15 PM 9.2°F-12.7°C -0.1°F-17.8°C 65% 2.0 mph SSW3.2 kmh SSW -- 30.71 in1040.0 mb 0.00 in0.0 mm 0.00 in0.0 mm 0.00 in0.0 mm
02:20 PM 9.0°F-12.8°C -0.7°F-18.2°C 64% Calm Calm -- 30.70 in1039.6 mb 0.00 in0.0 mm 0.00 in0.0 mm 0.00 in0.0 mm
02:25 PM 9.2°F-12.7°C -0.1°F-17.8°C 65% 3.0 mph SSW4.8 kmh SSW -- 30.70 in1039.6 mb 0.00 in0.0 mm 0.00 in0.0 mm 0.00 in0.0 mm
02:30 PM 9.3°F-12.6°C -0.4°F-18.0°C 64% 3.0 mph SSW4.8 kmh SSW -- 30.70 in1039.6 mb 0.00 in0.0 mm 0.00 in0.0 mm 0.00 in0.0 mm
02:35 PM 9.5°F-12.5°C 0.1°F-17.7°C 65% Calm Calm -- 30.70 in1039.6 mb 0.00 in0.0 mm 0.00 in0.0 mm 0.00 in0.0 mm
02:40 PM 9.9°F-12.3°C 0.5°F-17.5°C 65% 5.0 mph S8.0 kmh S 4.0 mph6.4 kmh 30.69 in1039.3 mb 0.00 in0.0 mm 0.00 in0.0 mm 0.00 in0.0 mm
02:45 PM 9.8°F-12.3°C -0.2°F-17.9°C 63% 3.0 mph SSE4.8 kmh SSE 4.0 mph6.4 kmh 30.69 in1039.3 mb 0.00 in0.0 mm 0.00 in0.0 mm 0.00 in0.0 mm
02:50 PM 10.1°F-12.2°C 0.4°F-17.6°C 64% 4.0 mph SSE6.4 kmh SSE -- 30.69 in1039.3 mb 0.00 in0.0 mm 0.00 in0.0 mm 0.00 in0.0 mm
02:55 PM 10.3°F-12.1°C 0.9°F-17.3°C 65% 1.0 mph SSE1.6 kmh SSE -- 30.69 in1039.3 mb 0.00 in0.0 mm 0.00 in0.0 mm 0.00 in0.0 mm
03:00 PM 10.4°F-12.0°C 0.7°F-17.4°C 64% 2.0 mph SSE3.2 kmh SSE -- 30.69 in1039.3 mb 0.00 in0.0 mm 0.00 in0.0 mm 0.00 in0.0 mm
03:05 PM 10.4°F-12.0°C 0.7°F-17.4°C 64% 4.0 mph SSE6.4 kmh SSE -- 30.69 in1039.3 mb 0.00 in0.0 mm 0.00 in0.0 mm 0.00 in0.0 mm
03:10 PM 10.4°F-12.0°C 0.7°F-17.4°C 64% 4.0 mph SSE6.4 kmh SSE -- 30.69 in1039.3 mb 0.00 in0.0 mm 0.00 in0.0 mm 0.00 in0.0 mm
03:15 PM 10.3°F-12.1°C 0.6°F-17.4°C 64% Calm Calm -- 30.69 in1039.3 mb 0.00 in0.0 mm 0.00 in0.0 mm 0.00 in0.0 mm
03:20 PM 10.5°F-11.9°C 0.8°F-17.3°C 64% 3.0 mph SSE4.8 kmh SSE -- 30.69 in1039.3 mb 0.00 in0.0 mm 0.00 in0.0 mm 0.00 in0.0 mm
03:25 PM 10.8°F-11.8°C 1.1°F-17.2°C 64% 3.0 mph SSE4.8 kmh SSE -- 30.69 in1039.3 mb 0.00 in0.0 mm 0.00 in0.0 mm 0.00 in0.0 mm
03:30 PM 11.1°F-11.6°C 1.3°F-17.1°C 64% 1.0 mph SSE1.6 kmh SSE 7.0 mph11.3 kmh 30.69 in1039.3 mb 0.00 in0.0 mm 0.00 in0.0 mm 0.00 in0.0 mm
03:35 PM 11.2°F-11.6°C 1.4°F-17.0°C 64% 1.0 mph SSE1.6 kmh SSE 7.0 mph11.3 kmh 30.68 in1038.9 mb 0.00 in0.0 mm 0.00 in0.0 mm 0.00 in0.0 mm
03:40 PM 11.2°F-11.6°C 1.4°F-17.0°C 64% 4.0 mph SSE6.4 kmh SSE -- 30.68 in1038.9 mb 0.00 in0.0 mm 0.00 in0.0 mm 0.00 in0.0 mm
03:45 PM 11.1°F-11.6°C 1.3°F-17.1°C 64% 5.0 mph SSE8.0 kmh SSE -- 30.68 in1038.9 mb 0.00 in0.0 mm 0.00 in0.0 mm 0.00 in0.0 mm
03:50 PM 10.9°F-11.7°C 0.8°F-17.3°C 63% 3.0 mph SSE4.8 kmh SSE -- 30.68 in1038.9 mb 0.00 in0.0 mm 0.00 in0.0 mm 0.00 in0.0 mm
03:55 PM 10.8°F-11.8°C 0.7°F-17.4°C 63% 4.0 mph SSE6.4 kmh SSE -- 30.68 in1038.9 mb 0.00 in0.0 mm 0.00 in0.0 mm 0.00 in0.0 mm
04:00 PM 10.8°F-11.8°C 0.7°F-17.4°C 63% 2.0 mph SSE3.2 kmh SSE -- 30.68 in1038.9 mb 0.00 in0.0 mm 0.00 in0.0 mm 0.00 in0.0 mm
04:05 PM 10.7°F-11.8°C 0.3°F-17.6°C 62% 7.0 mph SSE11.3 kmh SSE -- 30.68 in1038.9 mb 0.00 in0.0 mm 0.00 in0.0 mm 0.00 in0.0 mm
04:10 PM 10.6°F-11.9°C -0.2°F-17.9°C 61% 5.0 mph S8.0 kmh S -- 30.68 in1038.9 mb 0.00 in0.0 mm 0.00 in0.0 mm 0.00 in0.0 mm
04:15 PM 10.4°F-12.0°C -0.3°F-17.9°C 61% 3.0 mph SSE4.8 kmh SSE -- 30.68 in1038.9 mb 0.00 in0.0 mm 0.00 in0.0 mm 0.00 in0.0 mm
04:20 PM 10.4°F-12.0°C 0.0°F-17.8°C 62% 3.0 mph SSE4.8 kmh SSE 7.0 mph11.3 kmh 30.68 in1038.9 mb 0.00 in0.0 mm 0.00 in0.0 mm 0.00 in0.0 mm
04:25 PM 10.5°F-11.9°C 0.1°F-17.7°C 62% 4.0 mph SSE6.4 kmh SSE 7.0 mph11.3 kmh 30.68 in1038.9 mb 0.00 in0.0 mm 0.00 in0.0 mm 0.00 in0.0 mm
04:30 PM 10.5°F-11.9°C 0.1°F-17.7°C 62% 3.0 mph SSE4.8 kmh SSE -- 30.67 in1038.6 mb 0.00 in0.0 mm 0.00 in0.0 mm 0.00 in0.0 mm
04:35 PM 10.4°F-12.0°C 0.3°F-17.6°C 63% 5.0 mph SSE8.0 kmh SSE -- 30.67 in1038.6 mb 0.00 in0.0 mm 0.00 in0.0 mm 0.00 in0.0 mm
04:40 PM 10.3°F-12.1°C 0.2°F-17.7°C 63% 3.0 mph S4.8 kmh S -- 30.67 in1038.6 mb 0.00 in0.0 mm 0.00 in0.0 mm 0.00 in0.0 mm
04:45 PM 10.1°F-12.2°C 0.0°F-17.8°C 63% 3.0 mph S4.8 kmh S -- 30.67 in1038.6 mb 0.00 in0.0 mm 0.00 in0.0 mm 0.00 in0.0 mm
04:50 PM 10.1°F-12.2°C 0.0°F-17.8°C 63% 3.0 mph S4.8 kmh S -- 30.66 in1038.3 mb 0.00 in0.0 mm 0.00 in0.0 mm 0.00 in0.0 mm
04:55 PM 9.9°F-12.3°C -0.1°F-17.8°C 63% 5.0 mph S8.0 kmh S -- 30.66 in1038.3 mb 0.00 in0.0 mm 0.00 in0.0 mm 0.00 in0.0 mm
05:00 PM 9.8°F-12.3°C -0.2°F-17.9°C 63% 3.0 mph SSE4.8 kmh SSE -- 30.65 in1037.9 mb 0.00 in0.0 mm 0.00 in0.0 mm 0.00 in0.0 mm
05:05 PM 9.7°F-12.4°C -0.3°F-17.9°C 63% 3.0 mph SSE4.8 kmh SSE -- 30.65 in1037.9 mb 0.00 in0.0 mm 0.00 in0.0 mm 0.00 in0.0 mm
05:10 PM 9.6°F-12.4°C -0.4°F-18.0°C 63% 3.0 mph SSE4.8 kmh SSE 7.0 mph11.3 kmh 30.64 in1037.6 mb 0.00 in0.0 mm 0.00 in0.0 mm 0.00 in0.0 mm
05:15 PM 9.6°F-12.4°C -0.1°F-17.8°C 64% 1.0 mph SSE1.6 kmh SSE 7.0 mph11.3 kmh 30.65 in1037.9 mb 0.00 in0.0 mm 0.00 in0.0 mm 0.00 in0.0 mm
05:20 PM 9.5°F-12.5°C -0.2°F-17.9°C 64% 3.0 mph SSE4.8 kmh SSE -- 30.64 in1037.6 mb 0.00 in0.0 mm 0.00 in0.0 mm 0.00 in0.0 mm
05:25 PM 9.3°F-12.6°C 0.0°F-17.8°C 65% 3.0 mph SSE4.8 kmh SSE -- 30.64 in1037.6 mb 0.00 in0.0 mm 0.00 in0.0 mm 0.00 in0.0 mm
05:30 PM 9.1°F-12.7°C -0.2°F-17.9°C 65% 2.0 mph SSE3.2 kmh SSE -- 30.64 in1037.6 mb 0.00 in0.0 mm 0.00 in0.0 mm 0.00 in0.0 mm
05:35 PM 8.9°F-12.8°C -0.4°F-18.0°C 65% 3.0 mph SSE4.8 kmh SSE -- 30.64 in1037.6 mb 0.00 in0.0 mm 0.00 in0.0 mm 0.00 in0.0 mm
05:40 PM 8.6°F-13.0°C -0.4°F-18.0°C 66% 1.0 mph SSE1.6 kmh SSE -- 30.63 in1037.3 mb 0.00 in0.0 mm 0.00 in0.0 mm 0.00 in0.0 mm
05:45 PM 8.3°F-13.2°C -0.7°F-18.2°C 66% 2.0 mph SSE3.2 kmh SSE -- 30.63 in1037.3 mb 0.00 in0.0 mm 0.00 in0.0 mm 0.00 in0.0 mm
05:50 PM 8.1°F-13.3°C -0.6°F-18.1°C 67% 1.0 mph SSE1.6 kmh SSE -- 30.63 in1037.3 mb 0.00 in0.0 mm 0.00 in0.0 mm 0.00 in0.0 mm
05:55 PM 7.9°F-13.4°C -0.7°F-18.2°C 67% 1.0 mph SSE1.6 kmh SSE -- 30.63 in1037.3 mb 0.00 in0.0 mm 0.00 in0.0 mm 0.00 in0.0 mm
06:00 PM 7.7°F-13.5°C -0.6°F-18.1°C 68% 1.0 mph SSE1.6 kmh SSE 3.0 mph4.8 kmh 30.63 in1037.3 mb 0.00 in0.0 mm 0.00 in0.0 mm 0.00 in0.0 mm
06:05 PM 7.5°F-13.6°C -0.8°F-18.2°C 68% 2.0 mph SSE3.2 kmh SSE 3.0 mph4.8 kmh 30.62 in1036.9 mb 0.00 in0.0 mm 0.00 in0.0 mm 0.00 in0.0 mm
06:10 PM 7.4°F-13.7°C -0.9°F-18.3°C 68% 2.0 mph SSE3.2 kmh SSE -- 30.62 in1036.9 mb 0.00 in0.0 mm 0.00 in0.0 mm 0.00 in0.0 mm
06:15 PM 7.2°F-13.8°C -1.1°F-18.4°C 68% 1.0 mph SSE1.6 kmh SSE -- 30.62 in1036.9 mb 0.00 in0.0 mm 0.00 in0.0 mm 0.00 in0.0 mm
06:20 PM 7.1°F-13.8°C -1.2°F-18.4°C 68% 2.0 mph SSE3.2 kmh SSE -- 30.62 in1036.9 mb 0.00 in0.0 mm 0.00 in0.0 mm 0.00 in0.0 mm
06:25 PM 7.0°F-13.9°C -1.3°F-18.5°C 68% Calm Calm -- 30.62 in1036.9 mb 0.00 in0.0 mm 0.00 in0.0 mm 0.00 in0.0 mm
06:30 PM 7.0°F-13.9°C -1.0°F-18.3°C 69% Calm Calm -- 30.62 in1036.9 mb 0.00 in0.0 mm 0.00 in0.0 mm 0.00 in0.0 mm
06:35 PM 7.0°F-13.9°C -1.0°F-18.3°C 69% 2.0 mph SSE3.2 kmh SSE -- 30.62 in1036.9 mb 0.00 in0.0 mm 0.00 in0.0 mm 0.00 in0.0 mm
06:40 PM 6.9°F-13.9°C -1.4°F-18.6°C 68% 2.0 mph SSE3.2 kmh SSE -- 30.62 in1036.9 mb 0.00 in0.0 mm 0.00 in0.0 mm 0.00 in0.0 mm
06:45 PM 6.8°F-14.0°C -1.5°F-18.6°C 68% 4.0 mph SSE6.4 kmh SSE -- 30.62 in1036.9 mb 0.00 in0.0 mm 0.00 in0.0 mm 0.00 in0.0 mm
06:50 PM 6.8°F-14.0°C -1.5°F-18.6°C 68% 3.0 mph SSE4.8 kmh SSE 5.0 mph8.0 kmh 30.62 in1036.9 mb 0.00 in0.0 mm 0.00 in0.0 mm 0.00 in0.0 mm
06:55 PM 6.6°F-14.1°C -1.7°F-18.7°C 68% 3.0 mph SSE4.8 kmh SSE 5.0 mph8.0 kmh 30.62 in1036.9 mb 0.00 in0.0 mm 0.00 in0.0 mm 0.00 in0.0 mm
07:00 PM 6.5°F-14.2°C -1.8°F-18.8°C 68% 5.0 mph SSE8.0 kmh SSE -- 30.62 in1036.9 mb 0.00 in0.0 mm 0.00 in0.0 mm 0.00 in0.0 mm
07:05 PM 6.4°F-14.2°C -1.6°F-18.7°C 69% 3.0 mph SSE4.8 kmh SSE -- 30.61 in1036.6 mb 0.00 in0.0 mm 0.00 in0.0 mm 0.00 in0.0 mm
07:10 PM 6.3°F-14.3°C -1.7°F-18.7°C 69% 3.0 mph SSE4.8 kmh SSE -- 30.61 in1036.6 mb 0.00 in0.0 mm 0.00 in0.0 mm 0.00 in0.0 mm
07:15 PM 6.4°F-14.2°C -1.6°F-18.7°C 69% 2.0 mph SSE3.2 kmh SSE -- 30.62 in1036.9 mb 0.00 in0.0 mm 0.00 in0.0 mm 0.00 in0.0 mm
07:20 PM 6.6°F-14.1°C -1.1°F-18.4°C 70% 1.0 mph SSE1.6 kmh SSE -- 30.62 in1036.9 mb 0.00 in0.0 mm 0.00 in0.0 mm 0.00 in0.0 mm
07:25 PM 6.8°F-14.0°C -0.9°F-18.3°C 70% 1.0 mph SSE1.6 kmh SSE -- 30.62 in1036.9 mb 0.00 in0.0 mm 0.00 in0.0 mm 0.00 in0.0 mm
07:30 PM 7.1°F-13.8°C -0.6°F-18.1°C 70% 1.0 mph SSE1.6 kmh SSE -- 30.62 in1036.9 mb 0.00 in0.0 mm 0.00 in0.0 mm 0.00 in0.0 mm
07:35 PM 7.3°F-13.7°C -0.4°F-18.0°C 70% Calm Calm -- 30.61 in1036.6 mb 0.00 in0.0 mm 0.00 in0.0 mm 0.00 in0.0 mm
07:40 PM 7.5°F-13.6°C -0.2°F-17.9°C 70% Calm Calm 5.0 mph8.0 kmh 30.61 in1036.6 mb 0.00 in0.0 mm 0.00 in0.0 mm 0.00 in0.0 mm
07:45 PM 7.6°F-13.6°C -0.4°F-18.0°C 69% 1.0 mph SSE1.6 kmh SSE 5.0 mph8.0 kmh 30.61 in1036.6 mb 0.00 in0.0 mm 0.00 in0.0 mm 0.00 in0.0 mm
07:50 PM 7.8°F-13.4°C -0.2°F-17.9°C 69% 3.0 mph SSE4.8 kmh SSE -- 30.60 in1036.2 mb 0.00 in0.0 mm 0.00 in0.0 mm 0.00 in0.0 mm
07:55 PM 7.9°F-13.4°C -0.1°F-17.8°C 69% 4.0 mph SSE6.4 kmh SSE -- 30.59 in1035.9 mb 0.00 in0.0 mm 0.00 in0.0 mm 0.00 in0.0 mm
08:00 PM 8.0°F-13.3°C -0.3°F-17.9°C 68% 2.0 mph SSE3.2 kmh SSE -- 30.59 in1035.9 mb 0.00 in0.0 mm 0.00 in0.0 mm 0.00 in0.0 mm
08:05 PM 8.1°F-13.3°C -0.2°F-17.9°C 68% 5.0 mph SSE8.0 kmh SSE -- 30.59 in1035.9 mb 0.00 in0.0 mm 0.00 in0.0 mm 0.00 in0.0 mm
08:10 PM 8.1°F-13.3°C -0.2°F-17.9°C 68% 3.0 mph SSE4.8 kmh SSE -- 30.59 in1035.9 mb 0.00 in0.0 mm 0.00 in0.0 mm 0.00 in0.0 mm
08:15 PM 8.1°F-13.3°C -0.2°F-17.9°C 68% 3.0 mph SSE4.8 kmh SSE -- 30.59 in1035.9 mb 0.00 in0.0 mm 0.00 in0.0 mm 0.00 in0.0 mm
08:20 PM 8.0°F-13.3°C -0.3°F-17.9°C 68% 1.0 mph SSE1.6 kmh SSE -- 30.59 in1035.9 mb 0.00 in0.0 mm 0.00 in0.0 mm 0.00 in0.0 mm
08:25 PM 8.0°F-13.3°C -0.3°F-17.9°C 68% 5.0 mph SSE8.0 kmh SSE -- 30.59 in1035.9 mb 0.00 in0.0 mm 0.00 in0.0 mm 0.00 in0.0 mm
08:30 PM 7.8°F-13.4°C -0.5°F-18.1°C 68% 3.0 mph S4.8 kmh S 9.0 mph14.5 kmh 30.59 in1035.9 mb 0.00 in0.0 mm 0.00 in0.0 mm 0.00 in0.0 mm
08:35 PM 7.7°F-13.5°C -0.6°F-18.1°C 68% 5.0 mph S8.0 kmh S 9.0 mph14.5 kmh 30.59 in1035.9 mb 0.00 in0.0 mm 0.00 in0.0 mm 0.00 in0.0 mm
08:40 PM 7.6°F-13.6°C -0.7°F-18.2°C 68% 2.0 mph S3.2 kmh S -- 30.59 in1035.9 mb 0.00 in0.0 mm 0.00 in0.0 mm 0.00 in0.0 mm
08:45 PM 7.6°F-13.6°C -0.4°F-18.0°C 69% 2.0 mph S3.2 kmh S -- 30.59 in1035.9 mb 0.00 in0.0 mm 0.00 in0.0 mm 0.00 in0.0 mm
08:50 PM 7.4°F-13.7°C -0.6°F-18.1°C 69% 6.0 mph S9.7 kmh S -- 30.59 in1035.9 mb 0.00 in0.0 mm 0.00 in0.0 mm 0.00 in0.0 mm
08:55 PM 7.3°F-13.7°C -0.7°F-18.2°C 69% 3.0 mph S4.8 kmh S -- 30.59 in1035.9 mb 0.00 in0.0 mm 0.00 in0.0 mm 0.00 in0.0 mm
09:00 PM 7.3°F-13.7°C -0.4°F-18.0°C 70% 5.0 mph S8.0 kmh S -- 30.58 in1035.6 mb 0.00 in0.0 mm 0.00 in0.0 mm 0.00 in0.0 mm
09:05 PM 7.3°F-13.7°C -0.7°F-18.2°C 69% 3.0 mph S4.8 kmh S -- 30.58 in1035.6 mb 0.00 in0.0 mm 0.00 in0.0 mm 0.00 in0.0 mm
09:10 PM 7.2°F-13.8°C -0.8°F-18.2°C 69% 1.0 mph S1.6 kmh S -- 30.58 in1035.6 mb 0.00 in0.0 mm 0.00 in0.0 mm 0.00 in0.0 mm
09:15 PM 7.2°F-13.8°C -0.5°F-18.1°C 70% 3.0 mph S4.8 kmh S -- 30.58 in1035.6 mb 0.00 in0.0 mm 0.00 in0.0 mm 0.00 in0.0 mm
09:20 PM 7.2°F-13.8°C -0.5°F-18.1°C 70% Calm Calm 6.0 mph9.7 kmh 30.58 in1035.6 mb 0.00 in0.0 mm 0.00 in0.0 mm 0.00 in0.0 mm
09:25 PM 7.2°F-13.8°C -0.5°F-18.1°C 70% 3.0 mph S4.8 kmh S 6.0 mph9.7 kmh 30.58 in1035.6 mb 0.00 in0.0 mm 0.00 in0.0 mm 0.00 in0.0 mm
09:30 PM 7.3°F-13.7°C -0.4°F-18.0°C 70% 1.0 mph S1.6 kmh S -- 30.57 in1035.2 mb 0.00 in0.0 mm 0.00 in0.0 mm 0.00 in0.0 mm
09:35 PM 7.3°F-13.7°C -0.7°F-18.2°C 69% 3.0 mph S4.8 kmh S -- 30.57 in1035.2 mb 0.00 in0.0 mm 0.00 in0.0 mm 0.00 in0.0 mm
09:40 PM 7.3°F-13.7°C -0.7°F-18.2°C 69% 5.0 mph S8.0 kmh S -- 30.56 in1034.9 mb 0.00 in0.0 mm 0.00 in0.0 mm 0.00 in0.0 mm
09:45 PM 7.3°F-13.7°C -0.7°F-18.2°C 69% 3.0 mph S4.8 kmh S -- 30.56 in1034.9 mb 0.00 in0.0 mm 0.00 in0.0 mm 0.00 in0.0 mm
09:50 PM 7.3°F-13.7°C -0.7°F-18.2°C 69% 3.0 mph S4.8 kmh S -- 30.56 in1034.9 mb 0.00 in0.0 mm 0.00 in0.0 mm 0.00 in0.0 mm
09:55 PM 7.3°F-13.7°C -0.7°F-18.2°C 69% 2.0 mph SSE3.2 kmh SSE -- 30.55 in1034.5 mb 0.00 in0.0 mm 0.00 in0.0 mm 0.00 in0.0 mm
10:00 PM 7.3°F-13.7°C -0.7°F-18.2°C 69% 4.0 mph SSE6.4 kmh SSE -- 30.55 in1034.5 mb 0.00 in0.0 mm 0.00 in0.0 mm 0.00 in0.0 mm
10:05 PM 7.4°F-13.7°C -0.6°F-18.1°C 69% 6.0 mph S9.7 kmh S -- 30.55 in1034.5 mb 0.00 in0.0 mm 0.00 in0.0 mm 0.00 in0.0 mm
10:10 PM 7.4°F-13.7°C -0.6°F-18.1°C 69% 4.0 mph SSE6.4 kmh SSE 9.0 mph14.5 kmh 30.54 in1034.2 mb 0.00 in0.0 mm 0.00 in0.0 mm 0.00 in0.0 mm
10:15 PM 7.3°F-13.7°C -0.7°F-18.2°C 69% 5.0 mph S8.0 kmh S 9.0 mph14.5 kmh 30.54 in1034.2 mb 0.00 in0.0 mm 0.00 in0.0 mm 0.00 in0.0 mm
10:20 PM 7.3°F-13.7°C -0.7°F-18.2°C 69% 3.0 mph S4.8 kmh S -- 30.53 in1033.9 mb 0.00 in0.0 mm 0.00 in0.0 mm 0.00 in0.0 mm
10:25 PM 7.3°F-13.7°C -0.7°F-18.2°C 69% 2.0 mph S3.2 kmh S -- 30.53 in1033.9 mb 0.00 in0.0 mm 0.00 in0.0 mm 0.00 in0.0 mm
10:30 PM 7.2°F-13.8°C -0.8°F-18.2°C 69% 5.0 mph S8.0 kmh S -- 30.53 in1033.9 mb 0.00 in0.0 mm 0.00 in0.0 mm 0.00 in0.0 mm
10:35 PM 7.2°F-13.8°C -0.8°F-18.2°C 69% 5.0 mph S8.0 kmh S -- 30.53 in1033.9 mb 0.00 in0.0 mm 0.00 in0.0 mm 0.00 in0.0 mm
10:40 PM 7.3°F-13.7°C -0.4°F-18.0°C 70% 4.0 mph S6.4 kmh S -- 30.53 in1033.9 mb 0.00 in0.0 mm 0.00 in0.0 mm 0.00 in0.0 mm
10:45 PM 7.4°F-13.7°C -0.6°F-18.1°C 69% 3.0 mph S4.8 kmh S -- 30.53 in1033.9 mb 0.00 in0.0 mm 0.00 in0.0 mm 0.00 in0.0 mm
10:50 PM 7.4°F-13.7°C -0.3°F-17.9°C 70% 3.0 mph S4.8 kmh S -- 30.52 in1033.5 mb 0.00 in0.0 mm 0.00 in0.0 mm 0.00 in0.0 mm
10:55 PM 7.5°F-13.6°C -0.5°F-18.1°C 69% 6.0 mph SSE9.7 kmh SSE -- 30.51 in1033.2 mb 0.00 in0.0 mm 0.00 in0.0 mm 0.00 in0.0 mm
11:00 PM 7.5°F-13.6°C -0.5°F-18.1°C 69% 9.0 mph SSE14.5 kmh SSE 9.0 mph14.5 kmh 30.51 in1033.2 mb 0.00 in0.0 mm 0.00 in0.0 mm 0.00 in0.0 mm
11:05 PM 7.4°F-13.7°C -0.6°F-18.1°C 69% 3.0 mph S4.8 kmh S 9.0 mph14.5 kmh 30.50 in1032.8 mb 0.00 in0.0 mm 0.00 in0.0 mm 0.00 in0.0 mm
11:10 PM 6.3°F-14.3°C -1.7°F-18.7°C 69% 6.0 mph SW9.7 kmh SW -- 30.50 in1032.8 mb 0.00 in0.0 mm 0.00 in0.0 mm 0.00 in0.0 mm
11:15 PM 6.3°F-14.3°C -1.4°F-18.6°C 70% 4.0 mph SW6.4 kmh SW -- 30.50 in1032.8 mb 0.00 in0.0 mm 0.00 in0.0 mm 0.00 in0.0 mm
11:20 PM 6.4°F-14.2°C -1.0°F-18.3°C 71% 5.0 mph SW8.0 kmh SW -- 30.49 in1032.5 mb 0.00 in0.0 mm 0.00 in0.0 mm 0.00 in0.0 mm
11:25 PM 6.5°F-14.2°C -1.2°F-18.4°C 70% 4.0 mph SW6.4 kmh SW -- 30.49 in1032.5 mb 0.00 in0.0 mm 0.00 in0.0 mm 0.00 in0.0 mm
11:30 PM 7.8°F-13.4°C -0.2°F-17.9°C 69% 4.0 mph SSE6.4 kmh SSE -- 30.49 in1032.5 mb 0.00 in0.0 mm 0.00 in0.0 mm 0.00 in0.0 mm
11:35 PM 8.0°F-13.3°C -0.7°F-18.2°C 67% 7.0 mph S11.3 kmh S -- 30.48 in1032.2 mb 0.00 in0.0 mm 0.00 in0.0 mm 0.00 in0.0 mm
11:40 PM 8.0°F-13.3°C -1.0°F-18.3°C 66% 8.0 mph S12.9 kmh S -- 30.48 in1032.2 mb 0.00 in0.0 mm 0.00 in0.0 mm 0.00 in0.0 mm
11:45 PM 8.1°F-13.3°C -0.9°F-18.3°C 66% 7.0 mph S11.3 kmh S -- 30.48 in1032.2 mb 0.00 in0.0 mm 0.00 in0.0 mm 0.00 in0.0 mm
11:50 PM 8.0°F-13.3°C -1.0°F-18.3°C 66% 10.0 mph S16.1 kmh S 14.0 mph22.5 kmh 30.47 in1031.8 mb 0.00 in0.0 mm 0.00 in0.0 mm 0.00 in0.0 mm
11:55 PM 8.0°F-13.3°C -1.3°F-18.5°C 65% 8.0 mph S12.9 kmh S 14.0 mph22.5 kmh 30.47 in1031.8 mb 0.00 in0.0 mm 0.00 in0.0 mm 0.00 in0.0 mm